Time;durP1;ratioP1;P1;durP2;ratioP2;P2;SDS_P1;SDS_P2;PMS_P1;PMS_P2;Temp;Humidity;BMP_temperature;BMP_pressure;BME280_temperature;BME280_humidity;BME280_pressure;Samples;Min_cycle;Max_cycle;Signal;HPM_P1;HPM_P2
2024/01/17 00:02:17;;;;;;;10.50;6.10;;;-0.10;99.90;;;;;;5064909;28;20207;-51
2024/01/17 00:04:47;;;;;;;11.10;7.83;;;-0.10;99.90;;;;;;5054361;28;20199;-53
2024/01/17 00:07:12;;;;;;;15.30;7.67;;;-0.10;99.90;;;;;;5035172;28;20201;-52
2024/01/17 00:09:38;;;;;;;11.13;6.90;;;-0.10;99.90;;;;;;5067150;28;20734;-52
2024/01/17 00:12:04;;;;;;;10.73;7.70;;;-0.20;99.90;;;;;;5065992;28;20220;-52
2024/01/17 00:14:30;;;;;;;12.13;6.57;;;-0.10;99.90;;;;;;5057781;28;20580;-51
2024/01/17 00:16:57;;;;;;;9.87;7.37;;;-0.20;99.90;;;;;;5055561;28;20206;-51
2024/01/17 00:19:22;;;;;;;14.27;8.27;;;-0.20;99.90;;;;;;5063902;28;20236;-52
2024/01/17 00:21:48;;;;;;;12.77;7.33;;;-0.30;99.90;;;;;;5066245;28;20934;-52
2024/01/17 00:24:14;;;;;;;10.60;7.73;;;-0.20;99.90;;;;;;5037637;28;20203;-51
2024/01/17 00:26:39;;;;;;;11.67;8.57;;;-0.20;99.90;;;;;;5063867;28;20193;-52
2024/01/17 00:29:05;;;;;;;9.10;7.13;;;-0.30;99.90;;;;;;5061272;28;20208;-51
2024/01/17 00:31:30;;;;;;;12.67;7.37;;;-0.30;99.90;;;;;;5040948;28;20728;-51
2024/01/17 00:33:56;;;;;;;15.67;7.10;;;-0.20;99.90;;;;;;5060512;28;20212;-51
2024/01/17 00:36:21;;;;;;;11.57;7.60;;;-0.20;99.90;;;;;;5060117;28;20204;-51
2024/01/17 00:38:47;;;;;;;13.47;7.80;;;-0.40;99.90;;;;;;5048776;28;20195;-52
2024/01/17 00:41:12;;;;;;;14.93;7.73;;;-0.30;99.90;;;;;;5054874;28;20286;-52
2024/01/17 00:43:38;;;;;;;9.93;6.43;;;-0.40;99.90;;;;;;5050813;28;20579;-53
2024/01/17 00:46:04;;;;;;;10.73;7.80;;;-0.40;99.90;;;;;;5051320;28;21059;-52
2024/01/17 00:48:29;;;;;;;10.17;6.27;;;-0.50;99.90;;;;;;5050692;28;20223;-52
2024/01/17 00:50:55;;;;;;;13.03;7.97;;;-0.50;99.90;;;;;;5046402;28;20206;-53
2024/01/17 00:53:22;;;;;;;11.23;7.17;;;-0.50;99.90;;;;;;5049992;28;20210;-55
2024/01/17 00:55:47;;;;;;;9.50;7.07;;;-0.50;99.90;;;;;;5049520;28;20214;-50
2024/01/17 00:58:13;;;;;;;14.47;8.27;;;-0.50;99.90;;;;;;5029957;28;20249;-52
2024/01/17 01:00:39;;;;;;;13.80;8.07;;;-0.50;99.90;;;;;;5050831;28;20787;-52
2024/01/17 01:03:04;;;;;;;10.87;7.77;;;-0.50;99.90;;;;;;5051306;28;20218;-51
2024/01/17 01:05:30;;;;;;;10.07;7.57;;;-0.60;99.90;;;;;;5052567;28;20756;-52
2024/01/17 01:07:55;;;;;;;9.17;7.43;;;-0.70;99.90;;;;;;5046186;28;20265;-50
2024/01/17 01:10:21;;;;;;;12.03;8.60;;;-0.60;99.90;;;;;;5050121;28;20213;-56
2024/01/17 01:12:46;;;;;;;10.33;7.50;;;-0.70;99.90;;;;;;5041074;28;20206;-52
2024/01/17 01:15:12;;;;;;;12.33;7.30;;;-0.70;99.90;;;;;;5053559;28;20631;-52
2024/01/17 01:17:37;;;;;;;9.10;8.10;;;-0.80;99.90;;;;;;5056262;28;20512;-52
2024/01/17 01:20:03;;;;;;;10.90;7.93;;;-0.80;99.90;;;;;;5051985;28;20183;-52
2024/01/17 01:22:29;;;;;;;12.07;7.70;;;-0.80;99.90;;;;;;5054670;28;20604;-52
2024/01/17 01:24:54;;;;;;;10.33;8.23;;;-0.80;99.90;;;;;;5052030;28;20557;-52
2024/01/17 01:27:20;;;;;;;10.00;7.47;;;-0.80;99.90;;;;;;5059243;28;20205;-52
2024/01/17 01:29:45;;;;;;;16.03;9.43;;;-0.90;99.90;;;;;;5061311;28;20245;-52
2024/01/17 01:32:10;;;;;;;12.30;8.00;;;-0.90;99.90;;;;;;5055940;28;20245;-53
2024/01/17 01:34:36;;;;;;;14.03;7.70;;;-0.90;99.90;;;;;;5029735;28;20526;-52
2024/01/17 01:37:01;;;;;;;15.50;7.57;;;-0.90;99.90;;;;;;5054421;28;20210;-52
2024/01/17 01:39:27;;;;;;;12.43;6.87;;;-0.90;99.90;;;;;;5035350;28;20618;-53
2024/01/17 01:41:53;;;;;;;11.80;7.10;;;-0.90;99.90;;;;;;5058103;28;20201;-52
2024/01/17 01:44:18;;;;;;;7.50;6.80;;;-1.00;99.90;;;;;;5049943;28;20725;-52
2024/01/17 01:46:46;;;;;;;11.47;7.43;;;-1.00;99.90;;;;;;5051683;28;20252;-51
2024/01/17 01:49:14;;;;;;;11.30;7.53;;;-1.00;99.90;;;;;;5056643;28;20198;-51
2024/01/17 01:51:43;;;;;;;10.40;7.30;;;-1.00;99.90;;;;;;5047144;28;20198;-51
2024/01/17 01:54:10;;;;;;;10.77;7.67;;;-1.00;99.90;;;;;;5054340;28;20221;-52
2024/01/17 01:56:37;;;;;;;10.23;8.47;;;-0.90;99.90;;;;;;5060860;28;20669;-52
2024/01/17 01:59:03;;;;;;;13.57;8.23;;;-1.00;99.90;;;;;;5054390;28;20567;-52
2024/01/17 02:01:29;;;;;;;10.17;7.90;;;-1.00;99.90;;;;;;5053119;28;20198;-52
2024/01/17 02:03:56;;;;;;;8.60;7.37;;;-1.00;99.90;;;;;;5055754;28;20221;-52
2024/01/17 02:06:23;;;;;;;16.50;8.73;;;-1.10;99.90;;;;;;5042145;28;20232;-51
2024/01/17 02:08:51;;;;;;;12.53;8.53;;;-1.10;99.90;;;;;;5060531;28;20544;-51
2024/01/17 02:11:18;;;;;;;10.43;7.57;;;-1.10;99.90;;;;;;5060342;28;20328;-52
2024/01/17 02:13:44;;;;;;;11.93;8.03;;;-1.10;99.90;;;;;;5056669;28;20206;-52
2024/01/17 02:16:10;;;;;;;20.13;8.20;;;-1.10;99.90;;;;;;5053351;28;20182;-52
2024/01/17 02:18:35;;;;;;;10.73;8.20;;;-1.10;99.90;;;;;;5035794;28;20748;-52
2024/01/17 02:21:01;;;;;;;12.83;8.33;;;-1.10;99.90;;;;;;5053022;28;20213;-52
2024/01/17 02:23:28;;;;;;;13.80;8.47;;;-1.20;99.90;;;;;;5056080;28;20224;-52
2024/01/17 02:25:56;;;;;;;11.50;7.97;;;-1.10;99.90;;;;;;5060457;28;20241;-51
2024/01/17 02:28:21;;;;;;;15.13;9.03;;;-1.10;99.90;;;;;;5057771;28;20190;-51
2024/01/17 02:30:47;;;;;;;14.83;8.90;;;-1.10;99.90;;;;;;5060147;28;20293;-52
2024/01/17 02:33:14;;;;;;;11.40;7.50;;;-1.00;99.90;;;;;;5066397;28;20299;-51
2024/01/17 02:35:39;;;;;;;10.77;6.67;;;-1.00;99.90;;;;;;5036309;28;20227;-51
2024/01/17 02:38:05;;;;;;;9.43;7.63;;;-1.00;99.90;;;;;;5040272;28;20234;-53
2024/01/17 02:40:30;;;;;;;14.80;8.97;;;-1.10;99.90;;;;;;5064433;28;20205;-52
2024/01/17 02:42:56;;;;;;;13.70;7.93;;;-1.10;99.90;;;;;;5038725;28;20256;-52
2024/01/17 02:45:21;;;;;;;12.83;8.00;;;-1.10;99.90;;;;;;5064864;28;20264;-51
2024/01/17 02:47:47;;;;;;;8.17;6.87;;;-1.10;99.90;;;;;;5065226;28;20208;-51
2024/01/17 02:50:14;;;;;;;13.57;7.77;;;-1.10;99.90;;;;;;5058403;28;20197;-51
2024/01/17 02:52:47;;;;;;;12.47;7.40;;;-1.10;99.90;;;;;;5060563;28;20209;-50
2024/01/17 02:55:13;;;;;;;10.20;7.13;;;-1.10;99.90;;;;;;5054019;28;20186;-53
2024/01/17 02:57:39;;;;;;;13.57;7.07;;;-1.10;99.90;;;;;;5057632;28;20582;-52
2024/01/17 03:00:06;;;;;;;12.23;8.17;;;-1.20;99.90;;;;;;5068524;28;20189;-51
2024/01/17 03:02:32;;;;;;;10.53;7.27;;;-1.20;99.90;;;;;;5065999;28;20224;-51
2024/01/17 03:04:57;;;;;;;14.80;8.00;;;-1.20;99.90;;;;;;5065132;28;20201;-52
2024/01/17 03:07:23;;;;;;;11.17;8.10;;;-1.20;99.90;;;;;;5061047;28;20647;-51
2024/01/17 03:09:48;;;;;;;11.30;7.47;;;-1.20;99.90;;;;;;5063292;28;20206;-52
2024/01/17 03:12:14;;;;;;;11.03;7.77;;;-1.20;99.90;;;;;;5058334;28;20201;-52
2024/01/17 03:14:39;;;;;;;9.37;7.50;;;-1.20;99.90;;;;;;5064085;28;20246;-52
2024/01/17 03:17:05;;;;;;;12.07;8.67;;;-1.30;99.90;;;;;;5055679;28;20200;-52
2024/01/17 03:19:30;;;;;;;17.63;8.07;;;-1.30;99.90;;;;;;5060848;28;20209;-52
2024/01/17 03:21:56;;;;;;;15.07;8.73;;;-1.20;99.90;;;;;;5062222;28;20934;-52
2024/01/17 03:24:21;;;;;;;10.43;8.00;;;-1.30;99.90;;;;;;5059945;28;20477;-52
2024/01/17 03:26:47;;;;;;;11.77;7.83;;;-1.30;99.90;;;;;;5058096;28;20659;-52
2024/01/17 03:29:12;;;;;;;11.33;8.13;;;-1.20;99.90;;;;;;5034314;28;20615;-52
2024/01/17 03:31:38;;;;;;;9.50;7.47;;;-1.20;99.90;;;;;;5064822;28;20217;-52
2024/01/17 03:34:03;;;;;;;11.03;7.73;;;-1.10;99.90;;;;;;5061613;28;20518;-51
2024/01/17 03:36:29;;;;;;;12.90;8.60;;;-1.10;99.90;;;;;;5059742;28;20211;-52
2024/01/17 03:38:55;;;;;;;13.37;7.97;;;-1.20;99.90;;;;;;5059701;28;20754;-51
2024/01/17 03:41:21;;;;;;;10.10;7.77;;;-1.20;99.90;;;;;;5039777;28;20223;-54
2024/01/17 03:43:46;;;;;;;11.23;7.87;;;-1.20;99.90;;;;;;5060651;28;20302;-51
2024/01/17 03:46:12;;;;;;;8.30;5.03;;;-1.10;99.90;;;;;;5065391;28;20205;-51
2024/01/17 03:48:37;;;;;;;14.57;7.37;;;-1.20;99.90;;;;;;5059114;28;20201;-51
2024/01/17 03:51:03;;;;;;;12.50;8.40;;;-1.20;99.90;;;;;;5060432;28;20319;-51
2024/01/17 03:53:28;;;;;;;9.87;8.07;;;-1.20;99.90;;;;;;5058114;28;20220;-50
2024/01/17 03:55:54;;;;;;;11.23;7.97;;;-1.30;99.90;;;;;;5054997;28;20195;-50
2024/01/17 03:58:19;;;;;;;9.13;7.07;;;-1.30;99.90;;;;;;5059017;28;20209;-51
2024/01/17 04:00:45;;;;;;;8.53;7.73;;;-1.30;99.90;;;;;;5055477;28;20920;-51
2024/01/17 04:03:13;;;;;;;10.90;8.10;;;-1.40;99.90;;;;;;5061849;28;20224;-51
2024/01/17 04:05:41;;;;;;;9.37;7.20;;;-1.30;99.90;;;;;;5061425;28;20224;-51
2024/01/17 04:08:06;;;;;;;11.33;7.93;;;-1.40;99.90;;;;;;5063383;28;20208;-51
2024/01/17 04:10:32;;;;;;;9.50;7.37;;;-1.40;99.90;;;;;;5059792;28;20202;-51
2024/01/17 04:12:58;;;;;;;12.47;7.77;;;-1.40;99.90;;;;;;5057780;28;20214;-51
2024/01/17 04:15:23;;;;;;;8.50;6.83;;;-1.50;99.90;;;;;;5042210;28;20246;-51
2024/01/17 04:17:49;;;;;;;12.37;7.27;;;-1.30;99.90;;;;;;5057544;28;20319;-51
2024/01/17 04:20:15;;;;;;;10.93;8.27;;;-1.30;99.90;;;;;;5063812;28;20213;-51
2024/01/17 04:22:40;;;;;;;12.93;7.87;;;-1.30;99.90;;;;;;5064184;28;20286;-52
2024/01/17 04:25:06;;;;;;;10.83;7.73;;;-1.40;99.90;;;;;;5062124;28;20513;-52
2024/01/17 04:27:32;;;;;;;14.37;8.67;;;-1.30;99.90;;;;;;5058995;28;21024;-53
2024/01/17 04:29:58;;;;;;;9.63;7.50;;;-1.30;99.90;;;;;;5057897;28;20206;-53
2024/01/17 04:32:24;;;;;;;15.47;8.83;;;-1.30;99.90;;;;;;5034190;28;20734;-60
2024/01/17 04:34:49;;;;;;;10.50;7.97;;;-1.40;99.90;;;;;;5037109;28;20205;-58
2024/01/17 04:37:16;;;;;;;11.70;8.70;;;-1.40;99.90;;;;;;5055245;28;20685;-51
2024/01/17 04:39:41;;;;;;;12.93;7.77;;;-1.40;99.90;;;;;;5057775;28;20272;-50
2024/01/17 04:42:07;;;;;;;9.30;6.87;;;-1.40;99.90;;;;;;5053400;28;21153;-51
2024/01/17 04:44:32;;;;;;;10.77;8.77;;;-1.50;99.90;;;;;;5054643;28;20220;-52
2024/01/17 04:46:58;;;;;;;14.17;7.73;;;-1.40;99.90;;;;;;5056109;28;20211;-52
2024/01/17 04:49:26;;;;;;;10.70;7.83;;;-1.20;99.90;;;;;;5052938;28;20748;-53
2024/01/17 04:51:52;;;;;;;11.20;7.53;;;-1.20;99.90;;;;;;5057598;28;20240;-52
2024/01/17 04:54:19;;;;;;;10.67;8.27;;;-1.30;99.90;;;;;;5058774;28;20263;-52
2024/01/17 04:56:45;;;;;;;10.50;7.40;;;-1.30;99.90;;;;;;5058644;28;20201;-52
2024/01/17 04:59:10;;;;;;;13.13;8.07;;;-1.40;99.90;;;;;;5055881;28;20190;-52
2024/01/17 05:01:35;;;;;;;11.33;8.07;;;-1.50;99.90;;;;;;5051042;28;20277;-53
2024/01/17 05:04:02;;;;;;;11.77;8.13;;;-1.50;99.90;;;;;;5056968;28;21082;-51
2024/01/17 05:06:28;;;;;;;8.80;7.90;;;-1.60;99.90;;;;;;5062125;28;20237;-52
2024/01/17 05:08:56;;;;;;;12.63;8.37;;;-1.50;99.90;;;;;;5065002;28;20461;-50
2024/01/17 05:11:25;;;;;;;11.83;8.53;;;-1.50;99.90;;;;;;5062578;28;20198;-52
2024/01/17 05:13:50;;;;;;;14.43;9.23;;;-1.50;99.90;;;;;;5056221;28;20236;-51
2024/01/17 05:16:17;;;;;;;12.30;8.23;;;-1.50;99.90;;;;;;5061981;28;20195;-51
2024/01/17 05:18:43;;;;;;;15.17;8.40;;;-1.50;99.90;;;;;;5039502;28;20511;-51
2024/01/17 05:21:08;;;;;;;10.73;8.07;;;-1.50;99.90;;;;;;5035097;28;20858;-51
2024/01/17 05:23:34;;;;;;;10.70;8.23;;;-1.60;99.90;;;;;;5064914;28;20210;-51
2024/01/17 05:25:59;;;;;;;11.10;8.13;;;-1.70;99.90;;;;;;5057260;28;20247;-51
2024/01/17 05:28:25;;;;;;;12.47;8.10;;;-1.70;99.90;;;;;;5053967;28;20208;-52
2024/01/17 05:30:50;;;;;;;11.47;6.93;;;-1.80;99.90;;;;;;5059088;28;20604;-51
2024/01/17 05:33:16;;;;;;;17.33;9.27;;;-1.80;99.90;;;;;;5052848;28;20291;-52
2024/01/17 05:35:41;;;;;;;12.90;7.70;;;-1.80;99.90;;;;;;5057154;28;20212;-52
2024/01/17 05:38:07;;;;;;;18.80;8.70;;;-1.90;99.90;;;;;;5063410;28;20284;-52
2024/01/17 05:40:32;;;;;;;14.97;7.60;;;-1.90;99.90;;;;;;5057541;28;20723;-55
2024/01/17 05:43:00;;;;;;;18.23;8.93;;;-1.80;99.90;;;;;;5057467;28;20777;-50
2024/01/17 05:45:25;;;;;;;15.00;7.37;;;-1.80;99.90;;;;;;5062542;28;20236;-51
2024/01/17 05:47:51;;;;;;;11.17;7.93;;;-1.90;99.90;;;;;;5059973;28;20724;-51
2024/01/17 05:50:16;;;;;;;8.73;7.53;;;-1.90;99.90;;;;;;5056957;28;20240;-52
2024/01/17 05:52:43;;;;;;;10.33;7.67;;;-1.90;99.90;;;;;;5065510;28;20263;-51
2024/01/17 05:55:10;;;;;;;11.20;6.47;;;-1.80;99.90;;;;;;5064164;28;20871;-52
2024/01/17 05:57:36;;;;;;;8.90;6.60;;;-1.90;99.90;;;;;;5063735;28;20202;-52
2024/01/17 06:00:03;;;;;;;12.10;8.10;;;-2.00;99.90;;;;;;5060636;28;20205;-52
2024/01/17 06:02:29;;;;;;;8.57;7.33;;;-2.00;99.90;;;;;;5065379;28;21088;-52
2024/01/17 06:04:54;;;;;;;10.63;7.93;;;-2.00;99.90;;;;;;5064106;28;20207;-51
2024/01/17 06:07:20;;;;;;;12.87;8.00;;;-2.00;99.90;;;;;;5060202;28;20193;-53
2024/01/17 06:09:46;;;;;;;20.60;9.47;;;-1.90;99.90;;;;;;5058240;28;20576;-51
2024/01/17 06:12:11;;;;;;;10.77;7.10;;;-1.90;99.90;;;;;;5067197;28;20199;-52
2024/01/17 06:14:39;;;;;;;14.17;8.50;;;-2.00;99.90;;;;;;5056669;28;20210;-52
2024/01/17 06:17:05;;;;;;;10.73;8.07;;;-2.00;99.90;;;;;;5053482;28;20666;-52
2024/01/17 06:19:30;;;;;;;6.17;5.53;;;-2.00;99.90;;;;;;5040185;28;20251;-52
2024/01/17 06:21:56;;;;;;;12.03;7.57;;;-2.00;99.90;;;;;;5058179;28;20205;-52
2024/01/17 06:24:21;;;;;;;12.27;6.70;;;-2.00;99.90;;;;;;5037885;28;20277;-52
2024/01/17 06:26:46;;;;;;;14.67;8.40;;;-2.00;99.90;;;;;;5056808;28;20198;-52
2024/01/17 06:29:12;;;;;;;8.53;6.73;;;-1.90;99.90;;;;;;5062942;28;20211;-51
2024/01/17 06:31:38;;;;;;;12.33;6.50;;;-1.90;99.90;;;;;;5053747;28;20249;-51
2024/01/17 06:34:03;;;;;;;7.83;6.07;;;-1.90;99.90;;;;;;5060820;28;20745;-54
2024/01/17 06:36:29;;;;;;;11.30;7.30;;;-1.90;99.90;;;;;;5061494;28;20202;-52
2024/01/17 06:38:55;;;;;;;10.57;8.73;;;-2.00;99.90;;;;;;5057585;28;20278;-52
2024/01/17 06:41:20;;;;;;;15.10;7.57;;;-2.00;99.90;;;;;;5059329;28;20254;-52
2024/01/17 06:43:46;;;;;;;10.77;7.83;;;-2.10;99.90;;;;;;5064991;28;20216;-52
2024/01/17 06:46:12;;;;;;;9.70;6.33;;;-2.00;99.90;;;;;;5064802;28;20688;-52
2024/01/17 06:48:37;;;;;;;9.33;7.30;;;-2.00;99.90;;;;;;5056857;28;20191;-52
2024/01/17 06:51:04;;;;;;;10.40;7.33;;;-2.00;99.90;;;;;;5053321;28;20607;-52
2024/01/17 06:53:31;;;;;;;12.53;7.57;;;-2.00;99.90;;;;;;5053452;28;20861;-52
2024/01/17 06:55:56;;;;;;;9.93;7.57;;;-1.90;99.90;;;;;;5054194;28;20229;-51
2024/01/17 06:58:22;;;;;;;9.20;7.83;;;-2.00;99.90;;;;;;5030859;28;20291;-51
2024/01/17 07:00:47;;;;;;;10.93;7.50;;;-2.00;99.90;;;;;;5052040;28;20629;-51
2024/01/17 07:03:13;;;;;;;8.37;7.30;;;-2.00;99.90;;;;;;5048274;28;20321;-52
2024/01/17 07:05:39;;;;;;;22.27;7.87;;;-2.00;99.90;;;;;;5049353;28;20225;-51
2024/01/17 07:08:05;;;;;;;9.27;6.70;;;-1.90;99.90;;;;;;5050265;28;20202;-53
2024/01/17 07:10:30;;;;;;;10.40;6.73;;;-1.90;99.90;;;;;;5050864;28;20568;-52
2024/01/17 07:12:56;;;;;;;5.03;4.47;;;-1.90;99.90;;;;;;5052451;28;20190;-52
2024/01/17 07:15:22;;;;;;;9.40;6.87;;;-2.00;99.90;;;;;;5054623;28;20213;-54
2024/01/17 07:17:47;;;;;;;12.20;7.57;;;-2.00;99.90;;;;;;5047318;28;20191;-61
2024/01/17 07:20:13;;;;;;;12.30;7.47;;;-2.00;99.90;;;;;;5055577;28;20566;-53
2024/01/17 07:22:42;;;;;;;11.00;7.47;;;-2.00;99.90;;;;;;5050947;28;21151;-53
2024/01/17 07:25:10;;;;;;;9.33;6.10;;;-1.90;99.90;;;;;;5049325;28;20295;-55
2024/01/17 07:27:36;;;;;;;9.73;7.07;;;-2.00;99.90;;;;;;5034972;28;20229;-55
2024/01/17 07:30:01;;;;;;;8.60;6.47;;;-2.00;99.90;;;;;;5052320;28;20281;-52
2024/01/17 07:32:27;;;;;;;12.47;6.37;;;-2.00;99.90;;;;;;5034758;28;20700;-55
2024/01/17 07:34:52;;;;;;;11.17;7.07;;;-2.00;99.90;;;;;;5053493;28;20209;-53
2024/01/17 07:37:18;;;;;;;10.83;6.50;;;-2.00;99.90;;;;;;5056137;28;20194;-60
2024/01/17 07:39:43;;;;;;;8.67;6.47;;;-2.00;99.90;;;;;;5052518;28;21842;-67
2024/01/17 07:42:09;;;;;;;14.03;7.03;;;-1.90;99.90;;;;;;5045152;28;20268;-62
2024/01/17 07:44:35;;;;;;;11.63;7.87;;;-1.90;99.90;;;;;;5053161;28;20520;-64
2024/01/17 07:47:00;;;;;;;6.83;5.67;;;-1.90;99.90;;;;;;5051347;28;20217;-52
2024/01/17 07:49:26;;;;;;;6.87;5.87;;;-2.00;99.90;;;;;;5051905;28;20921;-52
2024/01/17 07:51:51;;;;;;;7.63;5.50;;;-2.10;99.90;;;;;;5047370;28;20785;-53
2024/01/17 07:54:18;;;;;;;7.40;5.27;;;-2.10;99.90;;;;;;5055120;28;20665;-54
2024/01/17 07:56:43;;;;;;;9.70;6.73;;;-2.00;99.90;;;;;;5054626;28;20289;-53
2024/01/17 07:59:09;;;;;;;9.00;6.80;;;-2.00;99.90;;;;;;5063368;28;20288;-53
2024/01/17 08:01:34;;;;;;;6.37;5.67;;;-2.00;99.90;;;;;;5057671;28;20286;-61
2024/01/17 08:04:00;;;;;;;7.03;5.17;;;-1.90;99.90;;;;;;5050097;28;20626;-53
2024/01/17 08:06:25;;;;;;;10.47;6.70;;;-1.90;99.90;;;;;;5046456;28;20256;-53
2024/01/17 08:08:52;;;;;;;11.40;6.90;;;-2.00;99.90;;;;;;5046640;28;21308;-61
2024/01/17 08:11:18;;;;;;;10.10;6.30;;;-2.00;99.90;;;;;;5056173;28;20344;-56
2024/01/17 08:13:44;;;;;;;16.07;7.30;;;-1.90;99.90;;;;;;5053684;28;20724;-55
2024/01/17 08:16:10;;;;;;;9.97;6.93;;;-1.90;99.90;;;;;;5048985;28;20202;-56
2024/01/17 08:18:36;;;;;;;9.27;6.43;;;-1.90;99.90;;;;;;5049430;28;20205;-53
2024/01/17 08:21:01;;;;;;;10.80;6.27;;;-1.90;99.90;;;;;;5057193;28;20212;-61
2024/01/17 08:23:28;;;;;;;12.13;7.17;;;-1.90;99.90;;;;;;5046391;28;20723;-57
2024/01/17 08:25:53;;;;;;;12.63;7.47;;;-1.90;99.90;;;;;;5032168;28;20218;-59
2024/01/17 08:28:19;;;;;;;11.00;6.80;;;-1.90;99.90;;;;;;5049358;28;20277;-53
2024/01/17 08:30:44;;;;;;;8.33;5.50;;;-1.80;99.90;;;;;;5029877;28;20189;-53
2024/01/17 08:33:10;;;;;;;9.83;6.60;;;-1.80;99.90;;;;;;5052135;28;20229;-52
2024/01/17 08:35:35;;;;;;;8.00;6.73;;;-1.80;99.90;;;;;;5050110;28;20194;-53
2024/01/17 08:38:01;;;;;;;10.10;6.60;;;-1.80;99.90;;;;;;5056573;28;20193;-52
2024/01/17 08:40:27;;;;;;;8.57;7.17;;;-1.70;99.90;;;;;;5053861;28;20194;-52
2024/01/17 08:42:52;;;;;;;11.57;7.40;;;-1.70;99.90;;;;;;5048238;28;20300;-58
2024/01/17 08:45:18;;;;;;;10.70;7.07;;;-1.70;99.90;;;;;;5056414;28;20229;-52
2024/01/17 08:47:44;;;;;;;7.73;4.47;;;-1.60;99.90;;;;;;5058937;28;20202;-53
2024/01/17 08:50:14;;;;;;;9.10;6.60;;;-1.60;99.90;;;;;;5064591;28;20197;-52
2024/01/17 08:52:40;;;;;;;10.93;6.67;;;-1.60;99.90;;;;;;5062821;28;20216;-53
2024/01/17 08:55:08;;;;;;;7.90;6.77;;;-1.60;99.90;;;;;;5043800;28;20558;-59
2024/01/17 08:57:37;;;;;;;9.37;6.60;;;-1.60;99.90;;;;;;5055170;28;20621;-61
2024/01/17 09:00:05;;;;;;;7.23;5.77;;;-1.60;99.90;;;;;;5047258;28;20205;-57
2024/01/17 09:05:03;;;;;;;9.33;7.13;;;-1.50;99.90;;;;;;4995962;22;20781;-52
2024/01/17 09:07:29;;;;;;;9.80;5.90;;;-1.50;99.90;;;;;;5024203;28;20211;-62
2024/01/17 09:09:55;;;;;;;9.53;7.20;;;-1.50;99.90;;;;;;5016850;28;20290;-59
2024/01/17 09:12:20;;;;;;;11.20;7.33;;;-1.40;99.90;;;;;;5018865;28;20195;-62
2024/01/17 09:14:45;;;;;;;9.33;8.00;;;-1.30;99.90;;;;;;5021049;28;20666;-53
2024/01/17 09:17:11;;;;;;;13.27;7.03;;;-1.30;99.90;;;;;;5023728;28;20693;-53
2024/01/17 09:19:37;;;;;;;13.37;8.80;;;-1.20;99.90;;;;;;5029223;28;20206;-53
2024/01/17 09:22:02;;;;;;;11.13;6.53;;;-1.10;99.90;;;;;;5031679;28;20212;-53
2024/01/17 09:24:28;;;;;;;9.47;7.70;;;-1.00;99.90;;;;;;5030686;28;20199;-53
2024/01/17 09:26:53;;;;;;;11.57;6.53;;;-0.90;99.90;;;;;;5027837;28;20203;-53
2024/01/17 09:29:20;;;;;;;10.73;6.80;;;-0.90;99.90;;;;;;5027902;28;20205;-54
2024/01/17 09:31:46;;;;;;;9.90;7.03;;;-0.80;99.90;;;;;;5035208;28;20665;-50
2024/01/17 09:34:11;;;;;;;10.40;6.33;;;-0.80;99.90;;;;;;5030629;28;20208;-50
2024/01/17 09:36:37;;;;;;;10.53;7.13;;;-0.80;99.90;;;;;;5026435;28;20900;-51
2024/01/17 09:39:03;;;;;;;9.17;6.43;;;-0.80;99.90;;;;;;5021368;28;20218;-53
2024/01/17 09:41:28;;;;;;;8.43;6.80;;;-0.70;99.90;;;;;;5030034;28;20225;-62
2024/01/17 09:43:56;;;;;;;11.43;8.50;;;-0.70;99.90;;;;;;5009024;28;20242;-61
2024/01/17 09:46:21;;;;;;;9.97;6.50;;;-0.70;99.90;;;;;;5019509;28;20291;-60
2024/01/17 09:48:47;;;;;;;10.80;6.50;;;-0.60;99.90;;;;;;5029016;28;20279;-62
2024/01/17 09:51:16;;;;;;;9.43;6.30;;;-0.60;99.90;;;;;;5024996;28;20278;-59
2024/01/17 09:53:46;;;;;;;12.53;7.10;;;-0.60;99.90;;;;;;5011446;28;20203;-52
2024/01/17 09:56:12;;;;;;;9.27;6.17;;;-0.60;99.90;;;;;;4996327;28;20227;-53
2024/01/17 09:58:40;;;;;;;8.80;6.20;;;-0.70;99.90;;;;;;5005949;28;20194;-53
2024/01/17 10:01:08;;;;;;;7.20;5.80;;;-0.60;99.90;;;;;;5013182;28;20228;-52
2024/01/17 10:03:37;;;;;;;10.87;6.77;;;-0.60;99.90;;;;;;5011370;28;20228;-51
2024/01/17 10:06:02;;;;;;;10.13;7.43;;;-0.40;99.90;;;;;;5010128;28;20634;-51
2024/01/17 10:08:30;;;;;;;11.33;7.33;;;-0.40;99.90;;;;;;5012672;28;20286;-51
2024/01/17 10:10:56;;;;;;;11.87;6.77;;;-0.30;99.90;;;;;;5011054;28;20227;-51
2024/01/17 10:13:21;;;;;;;12.13;8.43;;;-0.30;99.90;;;;;;5013083;28;20276;-51
2024/01/17 10:15:47;;;;;;;7.57;6.73;;;-0.20;99.90;;;;;;5015713;28;20645;-51
2024/01/17 10:18:12;;;;;;;10.47;7.00;;;-0.20;99.90;;;;;;5009480;28;20215;-51
2024/01/17 10:20:38;;;;;;;8.00;7.17;;;-0.20;99.90;;;;;;5013894;28;20203;-53
2024/01/17 10:23:06;;;;;;;9.50;7.23;;;-0.20;99.90;;;;;;5013951;28;20215;-52
2024/01/17 10:25:41;;;;;;;12.40;7.77;;;-0.10;99.90;;;;;;5014063;28;20208;-52
2024/01/17 10:28:08;;;;;;;10.53;7.40;;;0.00;99.90;;;;;;5013593;28;20484;-53
2024/01/17 10:30:35;;;;;;;10.87;7.30;;;0.00;99.90;;;;;;5013143;28;20201;-53
2024/01/17 10:33:02;;;;;;;8.97;7.80;;;0.20;99.90;;;;;;5013442;28;20235;-52
2024/01/17 10:35:28;;;;;;;9.73;6.77;;;0.20;99.90;;;;;;5015669;28;20198;-52
2024/01/17 10:37:54;;;;;;;10.07;7.50;;;0.30;99.90;;;;;;5013578;28;20250;-52
2024/01/17 10:40:19;;;;;;;11.47;7.03;;;0.40;99.90;;;;;;5009844;28;22889;-52
2024/01/17 10:42:45;;;;;;;10.57;7.33;;;0.30;99.90;;;;;;5009318;28;20282;-52
2024/01/17 10:45:21;;;;;;;12.23;8.00;;;0.30;99.90;;;;;;5013981;28;20349;-52
2024/01/17 10:47:47;;;;;;;10.40;7.17;;;0.40;99.90;;;;;;5013324;28;20794;-53
2024/01/17 10:50:13;;;;;;;9.30;7.03;;;0.50;99.90;;;;;;5009091;28;20942;-54
2024/01/17 10:52:40;;;;;;;10.13;7.93;;;0.80;99.90;;;;;;5013444;28;20196;-52
2024/01/17 10:55:08;;;;;;;9.20;6.97;;;0.90;99.90;;;;;;5013528;28;20213;-52
2024/01/17 10:57:35;;;;;;;7.83;6.57;;;0.90;99.90;;;;;;5013263;28;20730;-51
2024/01/17 11:00:03;;;;;;;13.80;7.70;;;1.00;99.90;;;;;;5009172;28;20226;-51
2024/01/17 11:02:29;;;;;;;12.00;7.47;;;1.20;99.90;;;;;;4997255;28;20219;-52
2024/01/17 11:04:58;;;;;;;9.87;7.17;;;1.30;99.90;;;;;;5014279;28;20349;-52
2024/01/17 11:07:24;;;;;;;7.23;6.33;;;1.40;99.90;;;;;;4995094;28;20262;-50
2024/01/17 11:09:52;;;;;;;10.43;6.97;;;1.30;99.90;;;;;;5012810;28;20786;-51
2024/01/17 11:12:19;;;;;;;13.23;7.63;;;1.60;99.90;;;;;;5013121;28;20237;-51
2024/01/17 11:14:47;;;;;;;12.03;7.50;;;1.80;99.90;;;;;;5013041;28;20225;-51
2024/01/17 11:17:15;;;;;;;10.47;7.63;;;1.80;99.90;;;;;;5012868;28;20313;-51
2024/01/17 11:19:43;;;;;;;12.43;7.47;;;1.90;99.90;;;;;;5013013;28;20235;-52
2024/01/17 11:22:09;;;;;;;14.20;8.40;;;2.00;99.90;;;;;;5012891;28;20649;-52
2024/01/17 11:24:53;;;;;;;11.23;7.43;;;1.90;99.90;;;;;;4994713;28;20216;-52
2024/01/17 11:27:35;;;;;;;13.30;7.20;;;1.90;99.90;;;;;;4995041;28;21276;-52
2024/01/17 11:30:26;;;;;;;10.10;7.77;;;1.90;99.90;;;;;;4993081;28;20335;-52
2024/01/17 11:33:06;;;;;;;11.57;7.93;;;2.00;99.90;;;;;;5012733;28;20293;-52
2024/01/17 11:35:46;;;;;;;11.03;7.57;;;2.20;99.90;;;;;;5014324;28;20225;-52
2024/01/17 11:38:24;;;;;;;14.73;7.60;;;2.40;99.90;;;;;;5006360;28;20633;-52
2024/01/17 11:40:57;;;;;;;13.67;7.67;;;2.60;99.90;;;;;;4994583;28;20259;-51
2024/01/17 11:43:26;;;;;;;8.13;6.90;;;2.70;99.90;;;;;;5011685;28;20573;-52
2024/01/17 11:45:53;;;;;;;11.47;6.90;;;2.50;99.90;;;;;;5012533;28;20678;-52
2024/01/17 11:48:24;;;;;;;11.90;8.10;;;2.30;99.90;;;;;;5011470;28;20201;-51
2024/01/17 11:50:57;;;;;;;10.17;6.80;;;2.30;99.90;;;;;;5003120;28;20205;-51
2024/01/17 11:53:23;;;;;;;9.47;7.87;;;2.30;99.90;;;;;;5012295;28;20203;-53
2024/01/17 11:55:49;;;;;;;8.53;6.87;;;2.20;99.90;;;;;;5012036;28;20201;-53
2024/01/17 11:58:16;;;;;;;12.37;7.57;;;2.10;99.90;;;;;;5011934;28;20576;-51
2024/01/17 12:00:41;;;;;;;9.70;7.87;;;2.00;99.90;;;;;;5011879;28;20204;-52
2024/01/17 12:03:07;;;;;;;11.57;7.10;;;2.00;99.90;;;;;;5013716;28;20225;-52
2024/01/17 12:05:36;;;;;;;11.70;7.73;;;2.10;99.90;;;;;;5011604;28;20196;-52
2024/01/17 12:08:05;;;;;;;11.63;7.17;;;2.10;99.90;;;;;;5011944;28;20199;-52
2024/01/17 12:10:31;;;;;;;16.37;7.83;;;2.10;99.90;;;;;;5011809;28;20190;-53
2024/01/17 12:12:57;;;;;;;12.50;7.63;;;2.00;99.90;;;;;;5007972;28;20581;-52
2024/01/17 12:15:23;;;;;;;10.50;6.90;;;2.20;99.90;;;;;;5012072;28;20217;-52
2024/01/17 12:17:50;;;;;;;8.67;7.37;;;2.30;99.90;;;;;;5012041;28;20206;-52
2024/01/17 12:20:16;;;;;;;10.00;7.23;;;2.30;99.90;;;;;;5012142;28;20331;-52
2024/01/17 12:22:52;;;;;;;8.00;7.03;;;2.50;99.90;;;;;;5013823;28;20308;-51
2024/01/17 12:25:18;;;;;;;12.87;7.53;;;2.80;99.90;;;;;;5013299;28;20206;-52
2024/01/17 12:27:51;;;;;;;9.77;7.87;;;2.80;99.90;;;;;;5012204;28;20693;-52
2024/01/17 12:30:17;;;;;;;10.43;6.83;;;2.80;99.90;;;;;;5013622;28;20197;-51
2024/01/17 12:32:42;;;;;;;9.10;6.90;;;2.70;99.90;;;;;;5011962;28;20208;-51
2024/01/17 12:35:08;;;;;;;11.47;7.30;;;2.80;99.90;;;;;;5011511;28;20198;-51
2024/01/17 12:37:34;;;;;;;7.37;6.53;;;2.60;99.90;;;;;;5011262;28;20313;-52
2024/01/17 12:39:59;;;;;;;11.43;8.07;;;2.40;99.90;;;;;;5011769;28;20213;-52